This is the latest recevied weather packets stored in our database for station/object KF6ILA. If no packets are shown the sender has not sent any weather packets the latest 10 day(s).
| Time | Temp. | Humidity | Pressure | Rain* | Wind** | Luminosity | Snow |
|---|---|---|---|---|---|---|---|
| 1787585770 | 25.56° C | 42% | 1019.4 hPa | 0 mm | - | 105 W/m² | - |
| 1787585474 | 25.56° C | 41% | 1019.5 hPa | 0 mm | - | 84 W/m² | - |
| 1787584880 | 26.11° C | 38% | 1019.6 hPa | 0 mm | - | 88 W/m² | - |
| 1787584286 | 26.67° C | 39% | 1019.6 hPa | 0 mm | - | 151 W/m² | - |
| 1787583395 | 26.67° C | 33% | 1019.8 hPa | 0 mm | - | 141 W/m² | - |
| 1787583098 | 26.67° C | 32% | 1019.7 hPa | 0 mm | - | 113 W/m² | - |
| 1787582801 | 26.11° C | 33% | 1019.7 hPa | 0 mm | - | 274 W/m² | - |
| 1787582504 | 25.56° C | 32% | 1019.6 hPa | 0 mm | - | 183 W/m² | - |
| 1787582206 | 25° C | 28% | 1019.6 hPa | 0 mm | - | 239 W/m² | - |
| 1787581613 | 25° C | 26% | 1019.5 hPa | 0 mm | - | 104 W/m² | - |
| 1787581316 | 25° C | 26% | 1019.5 hPa | 0 mm | - | 90 W/m² | - |
| 1787581019 | 25° C | 26% | 1019.5 hPa | 0 mm | - | 76 W/m² | - |
| 1787580128 | 24.44° C | 28% | 1019.3 hPa | 0 mm | - | 125 W/m² | - |
| 1787579831 | 24.44° C | 27% | 1019.4 hPa | 0 mm | - | 54 W/m² | - |
| 1787579237 | 24.44° C | 28% | 1019.2 hPa | 0 mm | - | 37 W/m² | - |
| 1787578940 | 24.44° C | 28% | 1019 hPa | 0 mm | - | 26 W/m² | - |
| 1787578643 | 23.89° C | 28% | 1018.9 hPa | 0 mm | - | 18 W/m² | - |
| 1787578346 | 23.89° C | 29% | 1018.8 hPa | 0 mm | - | 11 W/m² | - |
| 1787578049 | 23.33° C | 29% | 1018.7 hPa | 0 mm | - | 7 W/m² | - |
| 1787577455 | 23.33° C | 25% | 1018.6 hPa | 0 mm | - | 0 W/m² | - |
| 1787577158 | 23.33° C | 25% | 1018.6 hPa | 0 mm | - | 0 W/m² | - |
| 1787576861 | 23.33° C | 23% | 1018.5 hPa | 0 mm | - | 0 W/m² | - |
| 1787576267 | 23.33° C | 23% | 1018.4 hPa | 0 mm | - | 0 W/m² | - |
| 1787575970 | 22.78° C | 22% | 1018.4 hPa | 0 mm | - | 0 W/m² | - |
| 1787575673 | 22.78° C | 21% | 1018.3 hPa | 0 mm | - | 0 W/m² | - |
* Rain latest hour (hover to see other rain measurements)
** Current wind speed in m/s (hover to see current wind gust speed)